Time;durP1;ratioP1;P1;durP2;ratioP2;P2;SDS_P1;SDS_P2;PMS_P1;PMS_P2;Temp;Humidity;BMP_temperature;BMP_pressure;BME280_temperature;BME280_humidity;BME280_pressure;Samples;Min_cycle;Max_cycle;Signal;HPM_P1;HPM_P2
2022/07/03 00:00:29;;;;;;;8.13;5.03;;;;;;;17.30;71.79;101513.66;4970759;28;20112;-82
2022/07/03 00:02:55;;;;;;;6.45;4.78;;;;;;;17.27;71.66;101513.03;4970607;28;20063;-82
2022/07/03 00:05:20;;;;;;;7.10;4.88;;;;;;;17.23;71.54;101512.38;4969099;28;20097;-82
2022/07/03 00:07:46;;;;;;;8.57;5.00;;;;;;;17.21;71.21;101508.06;4967772;28;20041;-82
2022/07/03 00:10:11;;;;;;;7.35;4.85;;;;;;;17.13;71.44;101506.72;4968432;28;20019;-82
2022/07/03 00:12:37;;;;;;;5.75;4.40;;;;;;;17.07;71.16;101514.38;4968029;28;20042;-82
2022/07/03 00:15:03;;;;;;;6.38;4.55;;;;;;;17.01;71.90;101515.63;4969591;28;20077;-82
2022/07/03 00:17:28;;;;;;;5.97;4.30;;;;;;;16.95;71.10;101509.81;4969483;28;20472;-81
2022/07/03 00:19:54;;;;;;;6.85;5.10;;;;;;;16.89;72.18;101511.97;4965498;28;20115;-82
2022/07/03 00:22:20;;;;;;;7.38;5.20;;;;;;;16.83;72.78;101506.97;4966695;28;20107;-81
2022/07/03 00:24:58;;;;;;;7.32;5.28;;;;;;;16.79;72.48;101512.66;4967041;28;20093;-82
2022/07/03 00:27:25;;;;;;;7.55;4.82;;;;;;;16.68;73.65;101513.34;4966787;28;20228;-82
2022/07/03 00:29:52;;;;;;;9.80;4.97;;;;;;;16.63;74.59;101518.16;4964263;28;20619;-81
2022/07/03 00:32:25;;;;;;;8.38;5.00;;;;;;;16.56;74.34;101516.84;4969317;28;20039;-81
2022/07/03 00:34:54;;;;;;;7.22;5.15;;;;;;;16.42;74.41;101505.16;4965948;28;20114;-82
2022/07/03 00:37:20;;;;;;;7.13;5.68;;;;;;;16.41;75.00;101524.06;4969312;28;20437;-82
2022/07/03 00:39:45;;;;;;;7.82;5.32;;;;;;;16.37;74.79;101520.72;4966923;28;20026;-81
2022/07/03 00:42:12;;;;;;;7.43;5.28;;;;;;;16.31;75.22;101531.00;4968839;28;20069;-81
2022/07/03 00:44:50;;;;;;;7.50;5.50;;;;;;;16.20;74.95;101531.69;4966084;28;20039;-81
2022/07/03 00:47:21;;;;;;;7.20;5.78;;;;;;;16.08;75.47;101538.69;4969057;28;20178;-81
2022/07/03 00:49:49;;;;;;;5.88;5.30;;;;;;;16.04;74.16;101547.03;4968891;28;20046;-81
2022/07/03 00:52:17;;;;;;;8.18;5.68;;;;;;;16.07;74.22;101549.53;4968771;28;20042;-81
2022/07/03 00:55:00;;;;;;;7.53;5.38;;;;;;;16.13;73.59;101551.81;4969156;28;20133;-81
2022/07/03 00:57:30;;;;;;;7.50;5.60;;;;;;;16.14;73.77;101535.63;4967259;28;20026;-81
2022/07/03 00:59:57;;;;;;;7.85;5.25;;;;;;;16.15;73.59;101534.66;4967490;28;20110;-81
2022/07/03 01:02:45;;;;;;;7.03;5.43;;;;;;;16.19;72.69;101540.69;4966457;28;20042;-81
2022/07/03 01:05:19;;;;;;;8.35;5.82;;;;;;;16.17;73.20;101542.59;4962729;28;20397;-82
2022/07/03 01:08:02;;;;;;;5.97;5.28;;;;;;;16.16;72.54;101544.44;4967635;28;20027;-81
2022/07/03 01:10:54;;;;;;;6.22;5.20;;;;;;;16.16;72.50;101543.56;4968745;28;20113;-81
2022/07/03 01:13:49;;;;;;;7.03;5.40;;;;;;;16.10;72.90;101541.28;4968690;28;20082;-81
2022/07/03 01:16:23;;;;;;;6.63;5.40;;;;;;;16.08;73.37;101537.81;4968763;28;20069;-81
2022/07/03 01:19:32;;;;;;;6.57;5.00;;;;;;;16.08;72.79;101543.19;4966925;28;20111;-81
2022/07/03 01:22:17;;;;;;;7.78;5.20;;;;;;;16.03;73.20;101535.41;4964888;28;20038;-81
2022/07/03 01:24:56;;;;;;;5.32;4.80;;;;;;;16.01;73.80;101536.47;4967186;28;20027;-81
2022/07/03 01:27:33;;;;;;;6.85;5.10;;;;;;;15.94;73.48;101542.22;4961725;28;20022;-81
2022/07/03 01:30:04;;;;;;;6.60;5.28;;;;;;;15.90;74.18;101551.44;4965059;28;20029;-81
2022/07/03 01:32:37;;;;;;;7.85;5.35;;;;;;;15.88;73.95;101550.69;4967459;28;20027;-81
2022/07/03 01:35:06;;;;;;;6.43;5.28;;;;;;;15.81;74.67;101543.97;4965735;28;20102;-81
2022/07/03 01:37:34;;;;;;;6.07;4.75;;;;;;;15.73;74.65;101556.97;4967365;28;20389;-81
2022/07/03 01:40:03;;;;;;;6.70;5.30;;;;;;;15.68;74.68;101554.59;4967473;28;20041;-81
2022/07/03 01:42:32;;;;;;;7.85;5.00;;;;;;;15.64;75.29;101554.84;4984096;28;20038;-81
2022/07/03 01:44:59;;;;;;;8.35;5.40;;;;;;;15.58;74.47;101545.31;4966337;28;20037;-81
2022/07/03 01:47:25;;;;;;;6.93;4.82;;;;;;;15.61;74.93;101546.97;4966787;28;20089;-81
2022/07/03 01:49:51;;;;;;;5.80;5.22;;;;;;;15.59;75.11;101549.75;4967030;28;20042;-81
2022/07/03 01:52:19;;;;;;;6.75;5.15;;;;;;;15.57;74.79;101540.06;4963441;28;20131;-80
2022/07/03 01:54:45;;;;;;;5.93;5.30;;;;;;;15.55;75.04;101539.25;4967059;28;20101;-81
2022/07/03 01:57:11;;;;;;;7.75;5.22;;;;;;;15.51;75.19;101545.78;4967189;28;20022;-81
2022/07/03 01:59:36;;;;;;;5.88;5.22;;;;;;;15.49;75.14;101545.03;4967491;28;20031;-81
2022/07/03 02:02:22;;;;;;;7.15;5.03;;;;;;;15.49;75.01;101545.03;4967661;28;20030;-81
2022/07/03 02:05:00;;;;;;;6.30;5.50;;;;;;;15.42;75.50;101540.03;4967418;28;20038;-81
2022/07/03 02:07:49;;;;;;;5.93;5.22;;;;;;;15.44;75.56;101542.63;4964506;28;20113;-81
2022/07/03 02:10:16;;;;;;;8.25;5.60;;;;;;;15.41;75.68;101538.28;4966237;28;20030;-81
2022/07/03 02:12:42;;;;;;;7.28;5.25;;;;;;;15.40;76.03;101536.56;4966639;28;20027;-81
2022/07/03 02:15:09;;;;;;;6.13;5.43;;;;;;;15.37;76.28;101530.50;4966413;28;20134;-80
2022/07/03 02:17:43;;;;;;;6.97;5.63;;;;;;;15.36;75.77;101534.16;4964573;28;20374;-81
2022/07/03 02:20:09;;;;;;;6.60;5.70;;;;;;;15.35;76.15;101537.81;4968309;28;20242;-81
2022/07/03 02:22:39;;;;;;;9.75;6.10;;;;;;;15.33;76.57;101535.19;4966010;28;20066;-81
2022/07/03 02:25:08;;;;;;;7.07;5.40;;;;;;;15.30;76.75;101539.88;4968376;28;20376;-81
2022/07/03 02:27:56;;;;;;;6.30;5.68;;;;;;;15.32;75.76;101530.78;4962324;28;20182;-81
2022/07/03 02:30:24;;;;;;;8.35;5.95;;;;;;;15.31;76.63;101528.22;4966531;28;20107;-81
2022/07/03 02:32:53;;;;;;;6.55;5.20;;;;;;;15.28;77.17;101526.56;4966699;28;20059;-81
2022/07/03 02:35:23;;;;;;;8.55;6.05;;;;;;;15.28;77.71;101536.44;4981360;28;20085;-81
2022/07/03 02:38:09;;;;;;;6.93;5.90;;;;;;;15.25;76.56;101531.25;4965442;28;20153;-81
2022/07/03 02:40:42;;;;;;;10.57;6.00;;;;;;;15.20;76.99;101547.63;4971727;28;20366;-81
2022/07/03 02:43:21;;;;;;;8.30;6.18;;;;;;;15.12;77.49;101542.69;4971739;28;20081;-81
2022/07/03 02:45:55;;;;;;;11.13;6.65;;;;;;;15.10;77.94;101538.41;4971292;28;20396;-81
2022/07/03 02:48:45;;;;;;;7.70;5.90;;;;;;;15.07;77.43;101546.63;4970220;28;20091;-81
2022/07/03 02:51:19;;;;;;;7.22;6.18;;;;;;;15.00;78.07;101537.19;4970456;28;20050;-81
2022/07/03 02:53:58;;;;;;;7.55;6.20;;;;;;;14.97;78.86;101540.06;4971976;28;20027;-82
2022/07/03 02:56:39;;;;;;;7.80;6.53;;;;;;;14.92;78.47;101534.94;4965118;28;20025;-82
2022/07/03 02:59:17;;;;;;;7.72;6.50;;;;;;;14.91;78.94;101534.09;4970192;28;20049;-82
2022/07/03 03:01:52;;;;;;;9.15;6.80;;;;;;;14.89;78.84;101532.47;4971389;28;20041;-82
2022/07/03 03:04:32;;;;;;;8.90;7.57;;;;;;;14.90;78.39;101529.69;4971677;28;20081;-82
2022/07/03 03:07:17;;;;;;;7.47;6.25;;;;;;;14.92;78.10;101525.13;4970232;28;20101;-82
2022/07/03 03:09:47;;;;;;;8.68;6.82;;;;;;;14.88;79.15;101528.94;4983191;28;20433;-82
2022/07/03 03:12:14;;;;;;;7.00;6.22;;;;;;;14.87;78.91;101526.31;4969962;28;20033;-82
2022/07/03 03:14:47;;;;;;;9.90;6.30;;;;;;;14.88;78.80;101528.94;4970749;28;20042;-82
2022/07/03 03:17:19;;;;;;;7.18;6.35;;;;;;;14.89;79.00;101537.84;4969453;28;20481;-82
2022/07/03 03:19:54;;;;;;;8.98;6.47;;;;;;;14.84;78.96;101537.22;4968427;28;20035;-81
2022/07/03 03:22:46;;;;;;;7.18;6.25;;;;;;;14.84;78.29;101537.22;4959958;28;20037;-82
2022/07/03 03:25:12;;;;;;;9.43;6.00;;;;;;;14.71;79.63;101537.06;4970229;28;20034;-82
2022/07/03 03:27:37;;;;;;;7.15;5.65;;;;;;;14.70;79.45;101536.19;4965859;28;20038;-82
2022/07/03 03:30:06;;;;;;;8.55;6.15;;;;;;;14.65;79.83;101548.13;4972197;28;20046;-82
2022/07/03 03:32:34;;;;;;;8.65;6.28;;;;;;;14.64;80.47;101541.91;4970482;28;20385;-82
2022/07/03 03:34:59;;;;;;;6.82;5.47;;;;;;;14.63;80.05;101542.88;4969663;28;20034;-82
2022/07/03 03:37:25;;;;;;;8.68;5.78;;;;;;;14.62;80.06;101546.47;4955390;28;20080;-82
2022/07/03 03:39:51;;;;;;;9.05;6.22;;;;;;;14.62;79.91;101542.94;4970852;28;20026;-82
2022/07/03 03:42:16;;;;;;;6.22;5.63;;;;;;;14.60;79.46;101539.50;4969411;28;20504;-82
2022/07/03 03:44:41;;;;;;;8.23;5.85;;;;;;;14.63;79.79;101545.56;4965816;28;20057;-82
2022/07/03 03:47:07;;;;;;;6.95;5.43;;;;;;;14.64;79.72;101546.41;4968915;28;20035;-82
2022/07/03 03:49:33;;;;;;;7.35;5.22;;;;;;;14.66;79.08;101550.72;4965998;28;20027;-82
2022/07/03 03:51:58;;;;;;;5.72;4.30;;;;;;;14.65;79.28;101548.13;4970466;28;20031;-82
2022/07/03 03:54:24;;;;;;;7.45;4.78;;;;;;;14.67;77.95;101554.25;4970059;28;20507;-82
2022/07/03 03:56:49;;;;;;;9.00;5.18;;;;;;;14.65;78.52;101542.78;4968451;28;20459;-82
2022/07/03 03:59:15;;;;;;;5.43;4.45;;;;;;;14.66;78.02;101545.34;4968048;28;20023;-81
2022/07/03 04:01:40;;;;;;;7.55;4.60;;;;;;;14.65;77.70;101548.13;4969165;28;20035;-82
2022/07/03 04:04:05;;;;;;;7.50;3.70;;;;;;;14.76;77.19;101550.22;4971172;28;20045;-81
2022/07/03 04:06:31;;;;;;;4.28;3.75;;;;;;;14.76;76.98;101540.34;4967368;28;20120;-82
2022/07/03 04:08:56;;;;;;;6.15;3.72;;;;;;;14.82;77.33;101550.72;4968950;28;20389;-82
2022/07/03 04:11:22;;;;;;;11.18;4.95;;;;;;;14.87;76.76;101545.09;4968773;28;20110;-82
2022/07/03 04:13:47;;;;;;;9.90;4.75;;;;;;;14.91;76.65;101549.31;4968345;28;20490;-82
2022/07/03 04:16:12;;;;;;;6.13;4.03;;;;;;;14.91;76.50;101552.00;4968534;28;20025;-82
2022/07/03 04:18:38;;;;;;;4.70;3.55;;;;;;;14.91;76.37;101552.00;4965861;28;20027;-81
2022/07/03 04:21:03;;;;;;;5.40;3.95;;;;;;;14.93;76.89;101553.66;4970174;28;20411;-82
2022/07/03 04:23:29;;;;;;;4.38;3.03;;;;;;;14.98;76.13;101560.56;4968590;28;20434;-82
2022/07/03 04:25:55;;;;;;;3.45;3.15;;;;;;;14.94;77.24;101550.00;4967187;28;20073;-82
2022/07/03 04:28:20;;;;;;;4.43;3.40;;;;;;;14.97;76.37;101558.84;4968259;28;20023;-82
2022/07/03 04:30:46;;;;;;;5.10;3.30;;;;;;;14.93;75.89;101548.28;4967301;28;20039;-81
2022/07/03 04:33:11;;;;;;;4.28;3.00;;;;;;;14.94;75.89;101552.69;4967918;28;20430;-82
2022/07/03 04:35:38;;;;;;;5.88;3.53;;;;;;;14.99;75.14;101563.13;4968021;28;20496;-81
2022/07/03 04:38:03;;;;;;;4.40;3.28;;;;;;;15.03;75.16;101567.38;4967908;28;20043;-81
2022/07/03 04:40:29;;;;;;;6.40;3.60;;;;;;;15.07;75.13;101565.38;4969165;28;20384;-82
2022/07/03 04:42:54;;;;;;;5.95;4.00;;;;;;;15.16;74.81;101567.53;4969815;28;20073;-83
2022/07/03 04:45:19;;;;;;;6.38;3.70;;;;;;;15.25;74.72;101569.66;4966179;28;20085;-82
2022/07/03 04:47:45;;;;;;;6.30;4.13;;;;;;;15.42;73.73;101564.19;4964610;28;20026;-82
2022/07/03 04:50:10;;;;;;;5.70;3.85;;;;;;;15.59;72.49;101573.91;4965161;28;20079;-82
2022/07/03 04:52:35;;;;;;;7.35;4.18;;;;;;;15.76;72.94;101575.59;4950724;28;20031;-82
2022/07/03 04:55:02;;;;;;;7.15;4.50;;;;;;;15.86;72.51;101575.88;4967508;28;20065;-82
2022/07/03 04:57:28;;;;;;;7.15;4.30;;;;;;;15.89;71.89;101578.38;4965169;28;20177;-82
2022/07/03 04:59:53;;;;;;;5.40;3.90;;;;;;;15.89;71.75;101573.88;4969196;28;20035;-82
2022/07/03 05:02:19;;;;;;;6.05;4.07;;;;;;;15.92;70.84;101575.50;4966498;28;20031;-82
2022/07/03 05:04:44;;;;;;;5.80;4.20;;;;;;;15.95;70.98;101569.94;4967557;28;20527;-82
2022/07/03 05:07:09;;;;;;;5.68;4.40;;;;;;;16.04;70.81;101576.56;4966846;28;20029;-82
2022/07/03 05:09:34;;;;;;;6.85;4.43;;;;;;;16.18;70.53;101581.94;4966342;28;20027;-81
2022/07/03 05:12:00;;;;;;;5.82;4.43;;;;;;;16.30;70.58;101574.91;4968010;28;20030;-82
2022/07/03 05:14:25;;;;;;;5.97;4.63;;;;;;;16.35;69.86;101562.94;4968487;28;20095;-82
2022/07/03 05:16:50;;;;;;;6.20;4.30;;;;;;;16.39;69.43;101574.38;4965391;28;20042;-82
2022/07/03 05:19:16;;;;;;;6.22;4.43;;;;;;;16.40;69.65;101570.72;4966572;28;20035;-82
2022/07/03 05:21:41;;;;;;;5.78;4.30;;;;;;;16.50;69.56;101577.22;4967743;28;20393;-81
2022/07/03 05:24:07;;;;;;;5.97;3.95;;;;;;;16.50;68.51;101570.97;4967402;28;20042;-81
2022/07/03 05:26:32;;;;;;;4.93;4.20;;;;;;;16.50;68.82;101579.03;4967141;28;20042;-80
2022/07/03 05:28:57;;;;;;;7.22;4.40;;;;;;;16.48;68.66;101575.59;4966431;28;20035;-80
2022/07/03 05:31:23;;;;;;;6.38;4.00;;;;;;;16.48;69.03;101575.59;4963316;28;20030;-82
2022/07/03 05:33:48;;;;;;;5.78;4.68;;;;;;;16.49;68.96;101582.69;4967040;28;20058;-80
2022/07/03 05:36:13;;;;;;;7.95;4.70;;;;;;;16.47;68.94;101572.06;4964637;28;20041;-79
2022/07/03 05:41:22;;;;;;;6.93;4.38;;;;;;;16.48;69.31;101575.59;4967749;28;20045;-80
2022/07/03 05:43:48;;;;;;;7.05;4.22;;;;;;;16.47;68.77;101574.75;4968973;28;20405;-80
2022/07/03 05:46:13;;;;;;;9.27;5.00;;;;;;;16.54;69.10;101583.25;4966534;28;20050;-79
2022/07/03 05:48:38;;;;;;;7.68;4.82;;;;;;;16.55;68.46;101580.44;4965975;28;20145;-79
2022/07/03 05:51:04;;;;;;;6.50;5.03;;;;;;;16.59;69.09;101586.50;4966588;28;20043;-80
2022/07/03 05:53:30;;;;;;;7.75;4.68;;;;;;;16.60;68.79;101590.94;4966965;28;20474;-80
2022/07/03 05:55:56;;;;;;;8.35;5.03;;;;;;;16.66;68.96;101593.22;4955799;28;20023;-79
2022/07/03 05:58:21;;;;;;;11.48;4.85;;;;;;;16.75;69.42;101594.47;4966089;28;20399;-79
2022/07/03 06:00:46;;;;;;;7.47;4.40;;;;;;;16.88;69.33;101587.31;4967106;28;20026;-80
2022/07/03 06:03:12;;;;;;;6.75;4.57;;;;;;;16.98;68.55;101590.31;4970537;28;20041;-80
2022/07/03 06:05:38;;;;;;;8.45;4.70;;;;;;;17.07;68.45;101590.53;4969390;28;20109;-80
2022/07/03 06:08:04;;;;;;;7.10;3.90;;;;;;;17.23;67.27;101600.28;4966912;28;20050;-82
2022/07/03 06:10:30;;;;;;;7.88;4.50;;;;;;;17.41;67.43;101599.03;4969241;28;20034;-81
2022/07/03 06:12:55;;;;;;;8.95;3.95;;;;;;;17.60;66.98;101595.97;4967735;28;20030;-79
2022/07/03 06:15:21;;;;;;;6.72;3.55;;;;;;;17.81;65.55;101594.53;4966158;28;20027;-79
2022/07/03 06:17:46;;;;;;;5.15;3.42;;;;;;;17.89;65.30;101597.56;4966168;28;20420;-79
2022/07/03 06:20:12;;;;;;;9.68;4.40;;;;;;;18.03;65.03;101598.41;4966800;28;20118;-80
2022/07/03 06:22:38;;;;;;;8.05;3.90;;;;;;;18.24;64.43;101607.66;4965822;28;20034;-80
2022/07/03 06:25:04;;;;;;;6.40;3.90;;;;;;;18.45;64.72;101607.13;4968074;28;20061;-80
2022/07/03 06:27:29;;;;;;;9.55;3.80;;;;;;;18.70;63.96;101599.00;4964341;28;20556;-80
2022/07/03 06:29:55;;;;;;;6.63;3.53;;;;;;;18.87;63.40;101614.81;4965451;28;20018;-80
2022/07/03 06:32:20;;;;;;;7.88;3.60;;;;;;;19.04;62.84;101597.38;4966128;28;20393;-79
2022/07/03 06:34:46;;;;;;;5.45;3.50;;;;;;;19.20;62.23;101605.19;4966872;28;20414;-80
2022/07/03 06:37:12;;;;;;;7.35;2.88;;;;;;;19.45;61.47;101614.13;4966123;28;20023;-79
2022/07/03 06:39:38;;;;;;;5.07;3.25;;;;;;;19.56;60.86;101606.94;4967904;28;20094;-81
2022/07/03 06:42:04;;;;;;;6.88;3.65;;;;;;;19.66;60.12;101601.72;4968987;28;20034;-81
2022/07/03 06:44:29;;;;;;;6.38;3.85;;;;;;;19.73;60.06;101605.66;4967324;28;20031;-81
2022/07/03 06:46:54;;;;;;;7.32;3.42;;;;;;;19.92;60.41;101605.06;4965805;28;20476;-81
2022/07/03 06:49:20;;;;;;;7.95;4.30;;;;;;;19.96;59.27;101608.41;4962722;28;20500;-81
2022/07/03 06:51:46;;;;;;;8.88;4.88;;;;;;;19.98;59.33;101596.50;4966354;28;20054;-81
2022/07/03 06:54:11;;;;;;;5.70;3.50;;;;;;;19.99;59.86;101602.78;4968190;28;20054;-81
2022/07/03 06:56:37;;;;;;;7.30;3.30;;;;;;;20.15;59.07;101612.25;4965585;28;20473;-81
2022/07/03 06:59:03;;;;;;;7.43;3.00;;;;;;;20.15;58.55;101612.25;4966031;28;20030;-81
2022/07/03 07:01:28;;;;;;;5.35;4.00;;;;;;;20.22;57.92;101622.56;4962898;28;20027;-79
2022/07/03 07:03:53;;;;;;;4.38;2.95;;;;;;;20.25;58.22;101616.91;4965038;28;20031;-81
2022/07/03 07:06:18;;;;;;;6.18;3.00;;;;;;;20.26;57.84;101610.53;4963271;28;20039;-81
2022/07/03 07:08:44;;;;;;;6.35;3.08;;;;;;;20.36;58.28;101617.78;4966791;28;20057;-80
2022/07/03 07:11:09;;;;;;;4.63;2.90;;;;;;;20.34;56.37;101616.19;4965307;28;20031;-81
2022/07/03 07:13:34;;;;;;;3.83;2.65;;;;;;;20.41;56.89;101620.13;4967366;28;20065;-80
2022/07/03 07:16:00;;;;;;;3.67;2.85;;;;;;;20.55;56.77;101613.63;4965373;28;20023;-81
2022/07/03 07:18:26;;;;;;;4.82;2.80;;;;;;;20.79;56.80;101613.50;4982226;28;20031;-80
2022/07/03 07:20:52;;;;;;;3.42;3.00;;;;;;;21.09;55.53;101608.25;4965857;28;20101;-81
2022/07/03 07:23:17;;;;;;;5.22;2.83;;;;;;;21.23;55.01;101615.19;4965390;28;20019;-81
2022/07/03 07:25:42;;;;;;;5.32;2.90;;;;;;;21.33;54.43;101612.63;4966057;28;20046;-81
2022/07/03 07:28:08;;;;;;;6.13;2.90;;;;;;;21.51;54.80;101613.78;4971638;28;20046;-81
2022/07/03 07:30:33;;;;;;;4.25;2.88;;;;;;;21.70;53.38;101623.06;4969882;28;20118;-81
2022/07/03 07:32:58;;;;;;;7.25;2.60;;;;;;;22.04;52.05;101621.00;4967389;28;20033;-81
2022/07/03 07:35:23;;;;;;;4.78;2.67;;;;;;;22.39;52.60;101628.78;4968650;28;20210;-81
2022/07/03 07:37:49;;;;;;;4.32;2.70;;;;;;;22.62;51.75;101615.88;4968030;28;20113;-81
2022/07/03 07:40:14;;;;;;;5.18;2.80;;;;;;;22.90;50.10;101635.09;4970513;28;20052;-81
2022/07/03 07:42:39;;;;;;;6.38;2.90;;;;;;;23.21;49.13;101628.63;4967020;28;20054;-81
2022/07/03 07:45:05;;;;;;;5.38;2.60;;;;;;;23.52;48.02;101633.91;4965767;28;20031;-81
2022/07/03 07:47:31;;;;;;;4.85;2.88;;;;;;;23.97;47.75;101630.63;4969218;28;20027;-81
2022/07/03 07:49:56;;;;;;;5.60;2.67;;;;;;;24.47;47.44;101627.66;4968787;28;20343;-81
2022/07/03 07:52:23;;;;;;;5.53;3.25;;;;;;;24.72;44.86;101618.78;4965909;28;20033;-80
2022/07/03 07:54:49;;;;;;;6.22;3.05;;;;;;;24.81;44.73;101615.16;4969789;28;20033;-81
2022/07/03 07:57:14;;;;;;;4.22;3.03;;;;;;;25.32;44.25;101612.81;4968674;28;20393;-82
2022/07/03 07:59:39;;;;;;;6.05;2.97;;;;;;;25.83;43.02;101620.31;4970951;28;20041;-79
2022/07/03 08:07:33;;;;;;;6.97;2.53;;;;;;;26.56;41.13;101629.97;4962761;28;20077;-80
2022/07/03 08:09:58;;;;;;;6.72;3.50;;;;;;;27.01;38.46;101629.63;4968454;28;20454;-80
2022/07/03 08:12:24;;;;;;;4.57;3.00;;;;;;;26.86;38.57;101634.03;4968075;28;20433;-80
2022/07/03 08:14:49;;;;;;;5.20;2.70;;;;;;;26.97;39.26;101624.69;4969256;28;20027;-80
2022/07/03 08:17:14;;;;;;;5.97;2.90;;;;;;;27.55;38.76;101623.78;4968885;28;20035;-80
2022/07/03 08:19:40;;;;;;;7.22;3.80;;;;;;;28.00;37.43;101644.28;4968881;28;20030;-80
2022/07/03 08:22:05;;;;;;;5.60;3.58;;;;;;;28.49;36.31;101634.13;4968219;28;20398;-80
2022/07/03 08:24:30;;;;;;;5.57;3.28;;;;;;;28.62;35.96;101622.59;4962680;28;20067;-79
2022/07/03 08:26:57;;;;;;;4.60;3.08;;;;;;;28.87;35.48;101623.34;4965493;28;20038;-79
2022/07/03 08:29:22;;;;;;;4.10;2.42;;;;;;;29.52;34.30;101622.09;4970729;28;20038;-82
2022/07/03 08:31:47;;;;;;;6.57;3.35;;;;;;;29.45;33.98;101641.16;4965744;28;20284;-79
2022/07/03 08:34:13;;;;;;;4.45;3.35;;;;;;;29.54;34.45;101630.97;4966605;28;20029;-80
2022/07/03 08:36:42;;;;;;;4.97;3.35;;;;;;;29.58;33.67;101626.88;4967201;28;20884;-79
2022/07/03 08:39:09;;;;;;;5.32;3.17;;;;;;;29.83;32.88;101624.75;4969756;28;20054;-79
2022/07/03 08:41:37;;;;;;;8.10;4.25;;;;;;;29.83;33.24;101634.91;4968323;28;20031;-79
2022/07/03 08:44:03;;;;;;;5.10;3.42;;;;;;;29.98;32.99;101628.41;4970032;28;20054;-80
2022/07/03 08:46:31;;;;;;;4.63;3.20;;;;;;;30.48;32.65;101634.25;4968067;28;20061;-80
2022/07/03 08:48:58;;;;;;;4.40;3.03;;;;;;;30.94;31.22;101634.03;4970051;28;20030;-80
2022/07/03 08:51:24;;;;;;;5.00;3.10;;;;;;;30.85;31.16;101630.56;4969747;28;20089;-79
2022/07/03 08:53:54;;;;;;;4.18;2.70;;;;;;;31.15;32.09;101628.56;4969753;28;20603;-79
2022/07/03 08:56:23;;;;;;;4.47;2.80;;;;;;;31.65;30.54;101624.03;4969012;28;20031;-80
2022/07/03 08:58:48;;;;;;;3.47;2.95;;;;;;;31.74;30.89;101620.06;4969620;28;20027;-81
2022/07/03 09:01:18;;;;;;;3.88;2.60;;;;;;;32.22;30.07;101627.66;4970473;28;20037;-80
2022/07/03 09:03:45;;;;;;;5.93;3.80;;;;;;;31.94;29.58;101625.78;4969566;28;20027;-80
2022/07/03 09:06:12;;;;;;;5.20;3.55;;;;;;;32.17;29.44;101619.16;4982906;28;20035;-80
2022/07/03 09:08:38;;;;;;;5.20;2.80;;;;;;;32.83;28.58;101633.31;4968788;28;20477;-80
2022/07/03 09:11:04;;;;;;;3.53;2.90;;;;;;;33.07;27.85;101633.88;4970109;28;20050;-80
2022/07/03 09:13:29;;;;;;;5.15;3.20;;;;;;;33.30;28.44;101620.53;4969261;28;20086;-80
2022/07/03 09:15:54;;;;;;;5.78;2.80;;;;;;;33.75;27.95;101615.31;4983058;28;20457;-80
2022/07/03 09:18:39;;;;;;;4.10;2.35;;;;;;;34.35;28.03;101632.66;4969697;28;20444;-80
2022/07/03 09:21:05;;;;;;;4.05;2.80;;;;;;;34.53;26.46;101625.63;4970296;28;20075;-80
2022/07/03 09:23:43;;;;;;;4.88;2.70;;;;;;;34.75;26.78;101628.97;4969083;28;20027;-80
2022/07/03 09:26:17;;;;;;;6.60;2.78;;;;;;;34.13;27.49;101629.31;4965565;28;20118;-81
2022/07/03 09:28:47;;;;;;;3.67;3.00;;;;;;;34.25;27.18;101628.69;4977773;28;20038;-81
2022/07/03 09:31:15;;;;;;;4.78;2.92;;;;;;;34.68;26.94;101629.84;4988655;28;20044;-80
2022/07/03 09:33:52;;;;;;;3.70;2.40;;;;;;;35.47;27.29;101626.88;4986258;28;20030;-81
2022/07/03 09:36:20;;;;;;;2.83;2.10;;;;;;;35.60;23.89;101635.13;4982945;28;20117;-80
2022/07/03 09:38:45;;;;;;;4.40;2.00;;;;;;;36.13;24.81;101638.31;4972210;28;20031;-80
2022/07/03 09:41:11;;;;;;;3.47;2.35;;;;;;;36.46;24.29;101642.69;4986943;28;20038;-80
2022/07/03 09:43:41;;;;;;;3.65;2.10;;;;;;;36.96;23.51;101645.28;4970070;28;20038;-79
2022/07/03 09:46:07;;;;;;;3.22;2.05;;;;;;;35.93;23.50;101648.69;4969204;28;20126;-80
2022/07/03 09:48:34;;;;;;;4.15;1.95;;;;;;;33.89;26.43;101649.28;4968357;28;20110;-80
2022/07/03 09:51:26;;;;;;;3.15;1.95;;;;;;;33.89;27.11;101649.28;4968334;28;20097;-80
2022/07/03 09:54:00;;;;;;;6.75;3.30;;;;;;;31.68;29.20;101653.03;4983039;28;20112;-80
2022/07/03 09:56:34;;;;;;;2.65;1.73;;;;;;;32.22;29.66;101656.03;4967320;28;20109;-80
2022/07/03 09:59:09;;;;;;;5.38;2.13;;;;;;;33.98;26.23;101648.03;4968770;28;20019;-80
2022/07/03 10:01:40;;;;;;;2.33;2.10;;;;;;;35.19;25.45;101653.88;4983897;28;20077;-80
2022/07/03 10:04:13;;;;;;;2.67;2.40;;;;;;;35.40;25.13;101649.91;4968539;28;20030;-80
2022/07/03 10:06:51;;;;;;;3.15;2.60;;;;;;;33.14;27.85;101660.38;4967822;28;20863;-80
2022/07/03 10:09:18;;;;;;;4.82;2.70;;;;;;;33.06;27.98;101652.31;4969355;28;20054;-80
2022/07/03 10:11:44;;;;;;;3.15;2.78;;;;;;;31.55;29.62;101658.41;4983252;28;20042;-81
2022/07/03 10:14:15;;;;;;;5.05;2.78;;;;;;;29.61;32.46;101658.59;4972425;28;20033;-81
2022/07/03 10:16:40;;;;;;;4.03;2.60;;;;;;;29.82;33.13;101656.00;4983233;28;20108;-81
2022/07/03 10:19:08;;;;;;;4.53;2.78;;;;;;;31.74;29.40;101641.25;4968939;28;20477;-81
2022/07/03 10:21:35;;;;;;;5.88;2.60;;;;;;;33.11;28.96;101651.69;4968344;28;20066;-80
2022/07/03 10:24:02;;;;;;;4.03;1.85;;;;;;;35.02;27.06;101657.38;4967198;28;20022;-79
2022/07/03 10:26:29;;;;;;;4.75;1.77;;;;;;;35.01;24.60;101659.31;4966899;28;20073;-79
2022/07/03 10:28:56;;;;;;;2.35;1.45;;;;;;;33.39;26.81;101660.66;4966759;28;20038;-79
2022/07/03 10:31:23;;;;;;;3.47;1.75;;;;;;;32.01;28.66;101664.38;4949634;28;20060;-79
2022/07/03 10:33:50;;;;;;;2.17;1.50;;;;;;;31.94;28.03;101652.47;4962020;28;20039;-79
2022/07/03 10:36:15;;;;;;;2.28;1.40;;;;;;;31.72;28.47;101660.69;4967873;28;20116;-79
2022/07/03 10:38:45;;;;;;;2.58;1.40;;;;;;;31.89;28.31;101657.69;4968458;28;20023;-79
2022/07/03 10:44:45;;;;;;;2.42;1.17;;;;;;;35.92;23.51;101663.63;4967185;28;20113;-79
2022/07/03 10:47:36;;;;;;;2.63;1.20;;;;;;;35.03;25.41;101675.66;4968948;28;20054;-80
2022/07/03 10:50:03;;;;;;;2.45;0.98;;;;;;;34.24;24.82;101665.63;4980275;28;20484;-79
2022/07/03 10:52:28;;;;;;;3.30;1.95;;;;;;;33.89;24.66;101663.94;4949547;28;20451;-79
2022/07/03 10:54:56;;;;;;;3.70;1.60;;;;;;;34.12;25.93;101660.78;4963171;28;20120;-79
2022/07/03 10:57:21;;;;;;;2.03;1.42;;;;;;;33.66;25.49;101658.00;4967965;28;20027;-79
2022/07/03 10:59:47;;;;;;;2.45;1.42;;;;;;;32.61;26.05;101662.06;4969167;28;20027;-79
2022/07/03 11:02:23;;;;;;;3.92;1.90;;;;;;;31.64;27.72;101652.56;4972533;28;20476;-79
2022/07/03 11:05:01;;;;;;;3.22;2.08;;;;;;;29.90;30.37;101663.31;4970101;28;20400;-79
2022/07/03 11:07:27;;;;;;;4.93;2.72;;;;;;;28.27;33.41;101673.16;4972097;28;20027;-79
2022/07/03 11:10:10;;;;;;;4.97;2.75;;;;;;;27.17;34.47;101669.84;4972230;28;20499;-79
2022/07/03 11:13:08;;;;;;;2.88;2.50;;;;;;;26.16;35.99;101671.50;4971927;28;20456;-79
2022/07/03 11:15:34;;;;;;;2.33;1.80;;;;;;;25.76;36.94;101671.00;4970170;28;20059;-79
2022/07/03 11:18:11;;;;;;;2.80;2.13;;;;;;;25.52;37.81;101674.34;4970345;28;20125;-79
2022/07/03 11:20:57;;;;;;;3.05;1.77;;;;;;;27.80;35.72;101661.06;4970936;28;20113;-79
2022/07/03 11:23:26;;;;;;;2.72;1.40;;;;;;;31.32;29.82;101653.13;4954682;28;20023;-79
2022/07/03 11:25:53;;;;;;;3.55;1.65;;;;;;;32.00;27.91;101654.41;4971611;28;20043;-79
2022/07/03 11:28:30;;;;;;;3.40;2.30;;;;;;;30.74;30.12;101651.13;4971758;28;20029;-79
2022/07/03 11:31:13;;;;;;;3.83;2.30;;;;;;;30.00;31.40;101651.00;4970609;28;20317;-79
2022/07/03 11:33:53;;;;;;;3.50;2.37;;;;;;;29.49;32.79;101649.88;4969797;28;20066;-79
2022/07/03 11:36:21;;;;;;;5.63;2.00;;;;;;;29.08;33.65;101644.66;4971679;28;20293;-80
2022/07/03 11:39:02;;;;;;;5.30;2.20;;;;;;;29.30;33.13;101642.97;4971441;28;20424;-79
2022/07/03 11:41:41;;;;;;;5.32;2.10;;;;;;;29.00;33.43;101642.81;4971553;28;20065;-79
2022/07/03 11:44:08;;;;;;;3.92;1.98;;;;;;;29.07;34.32;101645.72;4970093;28;20031;-80